Terminal Aerodrome Forecast
Issued by NWS Newport/Morehead City, NC

Home | Current Version | Previous Version | Graphics & Text | Print | Product List | Glossary On
Versions: 1 2 3 4 5 6 7 8 9 10 11 12 13 14 15 16 17
000
FTUS42 KMHX 230500
TAFEWN
TAF
KEWN 230534Z 2306/2406 06005KT P6SM FEW100 SCT200
     FM231000 06006KT P6SM BKN100
     FM231800 07010KT P6SM -RA OVC045
     FM232200 08010KT 3SM RA BR SCT005 OVC009
     FM240100 14015G23KT 1 1/2SM RA BR OVC005=

USA.gov is the U.S. government's official web portal to all federal, state and local government web resources and services.